Time;durP1;ratioP1;P1;durP2;ratioP2;P2;SDS_P1;SDS_P2;PMS_P1;PMS_P2;Temp;Humidity;BMP_temperature;BMP_pressure;BME280_temperature;BME280_humidity;BME280_pressure;Samples;Min_cycle;Max_cycle;Signal;HPM_P1;HPM_P2
2021/08/21 00:01:41;;;;;;;;;12.00;11.75;;;;;31.89;33.46;100961.03;144161;574;132019;-73
2021/08/21 00:04:15;;;;;;;;;16.75;15.75;;;;;31.90;33.38;100959.16;144173;613;132012;-73
2021/08/21 00:06:49;;;;;;;;;13.75;13.75;;;;;31.86;33.59;100955.97;144147;608;134014;-74
2021/08/21 00:09:23;;;;;;;;;14.25;13.00;;;;;31.72;33.90;100940.41;144155;673;132010;-74
2021/08/21 00:11:57;;;;;;;;;12.00;12.00;;;;;31.82;33.80;100949.19;144150;609;132018;-71
2021/08/21 00:14:31;;;;;;;;;16.00;16.00;;;;;31.84;33.75;100952.56;144166;578;132014;-72
2021/08/21 00:17:06;;;;;;;;;16.75;15.25;;;;;31.84;33.59;100936.28;144145;615;132012;-74
2021/08/21 00:19:40;;;;;;;;;13.25;13.25;;;;;31.86;33.63;100945.09;144165;564;132014;-73
2021/08/21 00:22:13;;;;;;;;;11.25;10.25;;;;;31.92;33.21;100942.69;144148;567;132912;-71
2021/08/21 00:24:47;;;;;;;;;13.00;13.00;;;;;31.89;33.39;100939.31;144173;637;132010;-68
2021/08/21 00:27:23;;;;;;;;;13.00;13.00;;;;;31.82;33.22;100937.47;144163;602;132912;-71
2021/08/21 00:29:57;;;;;;;;;15.25;13.50;;;;;31.67;32.61;100929.22;144172;653;132011;-67
2021/08/21 00:32:31;;;;;;;;;12.50;11.50;;;;;31.62;32.37;100942.47;144147;599;133007;-68
2021/08/21 00:35:05;;;;;;;;;12.50;12.00;;;;;31.62;32.46;100934.34;144159;639;132012;-67
2021/08/21 00:37:39;;;;;;;;;13.00;13.00;;;;;31.65;32.54;100931.28;144148;573;132912;-66
2021/08/21 00:40:14;;;;;;;;;13.75;12.75;;;;;31.63;32.05;100933.31;144167;583;132012;-67
2021/08/21 00:42:48;;;;;;;;;12.75;12.75;;;;;31.59;31.88;100926.53;144154;613;132012;-67
2021/08/21 00:45:22;;;;;;;;;13.75;12.75;;;;;31.52;32.48;100935.37;144166;580;132010;-67
2021/08/21 00:47:57;;;;;;;;;12.00;12.00;;;;;31.60;32.30;100939.09;144149;576;132012;-71
2021/08/21 00:50:31;;;;;;;;;12.50;12.50;;;;;31.38;32.21;100947.81;144170;620;132010;-69
2021/08/21 00:53:06;;;;;;;;;17.75;17.75;;;;;31.54;32.06;100955.03;144158;570;132912;-73
2021/08/21 00:55:39;;;;;;;;;16.75;16.75;;;;;31.51;31.82;100952.69;144171;671;132012;-70
2021/08/21 00:58:15;;;;;;;;;16.75;13.75;;;;;31.57;31.39;100945.69;144150;589;132012;-71
2021/08/21 01:00:49;;;;;;;;;14.75;13.75;;;;;31.60;31.69;100944.53;144146;591;132014;-73
2021/08/21 01:03:23;;;;;;;;;13.75;13.75;;;;;31.58;31.76;100951.97;144143;571;133018;-74
2021/08/21 01:05:57;;;;;;;;;17.75;15.50;;;;;31.39;32.17;100945.94;144166;611;132015;-70
2021/08/21 01:08:31;;;;;;;;;13.00;13.00;;;;;31.26;32.17;100951.06;144147;617;132014;-70
2021/08/21 01:11:05;;;;;;;;;16.25;16.25;;;;;31.19;31.90;100943.62;144173;592;132012;-70
2021/08/21 01:13:39;;;;;;;;;16.75;16.25;;;;;31.09;32.16;100952.97;144147;608;132015;-70
2021/08/21 01:16:13;;;;;;;;;17.50;16.25;;;;;31.12;31.86;100942.59;144175;652;132010;-69
2021/08/21 01:18:47;;;;;;;;;15.00;12.25;;;;;31.12;32.10;100945.31;144159;596;132014;-70
2021/08/21 01:21:22;;;;;;;;;12.50;12.50;;;;;31.16;31.73;100943.13;144169;637;132014;-70
2021/08/21 01:23:56;;;;;;;;;16.50;16.50;;;;;31.02;31.95;100931.09;144154;593;132012;-68
2021/08/21 01:26:30;;;;;;;;;13.75;12.75;;;;;31.14;32.39;100943.28;144155;581;132010;-66
2021/08/21 01:29:38;;;;;;;;;10.50;10.50;;;;;31.35;31.96;100942.72;144145;556;133016;-66
2021/08/21 01:32:19;;;;;;;;;14.25;14.25;;;;;31.43;31.17;100943.72;144171;598;131020;-71
2021/08/21 01:34:57;;;;;;;;;12.50;12.50;;;;;31.34;31.00;100951.03;144151;607;132012;-71
2021/08/21 01:38:25;;;;;;;;;13.00;12.00;;;;;31.25;30.99;100942.09;144172;596;132010;-71
2021/08/21 01:40:59;;;;;;;;;12.75;12.75;;;;;31.15;30.90;100949.53;144142;613;132912;-70
2021/08/21 01:43:42;;;;;;;;;11.25;11.25;;;;;31.01;31.21;100951.06;144170;591;131021;-70
2021/08/21 01:46:16;;;;;;;;;13.00;12.25;;;;;30.94;31.09;100960.91;144158;605;132018;-69
2021/08/21 01:48:50;;;;;;;;;13.00;13.00;;;;;30.96;31.57;100948.03;144173;651;131020;-69
2021/08/21 01:51:24;;;;;;;;;11.00;11.00;;;;;30.90;31.60;100944.12;144150;591;132013;-69
2021/08/21 01:53:58;;;;;;;;;11.75;11.75;;;;;30.85;31.77;100947.38;144151;588;132020;-69
2021/08/21 01:56:32;;;;;;;;;12.75;12.75;;;;;30.91;31.88;100950.38;144144;597;132912;-68
2021/08/21 01:59:06;;;;;;;;;12.25;12.00;;;;;30.92;31.94;100946.66;144170;605;132014;-69
2021/08/21 02:01:40;;;;;;;;;10.00;10.00;;;;;30.83;32.20;100948.56;144149;572;132014;-70
2021/08/21 02:04:17;;;;;;;;;14.25;12.75;;;;;30.93;32.45;100949.19;144173;617;132010;-67
2021/08/21 02:06:51;;;;;;;;;15.00;14.25;;;;;30.74;33.35;100952.28;144145;593;132012;-70
2021/08/21 02:09:28;;;;;;;;;11.75;10.75;;;;;30.94;33.67;100947.34;144168;594;132010;-70
2021/08/21 02:12:12;;;;;;;;;11.00;11.00;;;;;31.02;33.93;100947.34;144161;644;132020;-70
2021/08/21 02:14:46;;;;;;;;;12.25;12.25;;;;;30.97;33.67;100941.59;144176;577;131021;-70
2021/08/21 02:17:20;;;;;;;;;14.75;14.00;;;;;30.98;33.80;100946.00;144148;576;132910;-69
2021/08/21 02:19:54;;;;;;;;;13.50;13.50;;;;;30.95;33.77;100947.19;144150;570;132015;-70
2021/08/21 02:22:28;;;;;;;;;15.00;14.00;;;;;30.86;33.97;100948.19;144148;761;132911;-69
2021/08/21 02:25:02;;;;;;;;;12.50;12.50;;;;;30.86;33.91;100946.31;144170;614;132014;-68
2021/08/21 02:27:38;;;;;;;;;14.75;14.75;;;;;30.71;33.95;100946.19;144149;584;132911;-69
2021/08/21 02:30:13;;;;;;;;;14.00;14.00;;;;;31.01;33.52;100949.19;144169;609;132014;-68
2021/08/21 02:32:47;;;;;;;;;15.75;15.25;;;;;31.16;33.45;100949.37;144150;678;132910;-69
2021/08/21 02:35:21;;;;;;;;;11.00;10.25;;;;;31.30;33.12;100944.25;144170;594;132015;-69
2021/08/21 02:37:55;;;;;;;;;14.00;14.00;;;;;31.43;32.50;100950.00;144161;595;132020;-65
2021/08/21 02:40:30;;;;;;;;;14.50;12.75;;;;;31.40;32.69;100942.22;144166;593;132014;-65
2021/08/21 02:43:03;;;;;;;;;12.25;12.25;;;;;31.36;32.53;100944.41;144148;606;132910;-65
2021/08/21 02:45:37;;;;;;;;;12.25;12.00;;;;;31.22;32.56;100945.97;144153;604;132012;-65
2021/08/21 02:48:12;;;;;;;;;10.00;8.50;;;;;31.10;32.86;100949.22;144149;625;132012;-65
2021/08/21 02:50:46;;;;;;;;;17.75;16.25;;;;;31.14;32.59;100943.28;144166;567;132011;-66
2021/08/21 02:53:20;;;;;;;;;13.50;12.25;;;;;31.14;32.42;100951.41;144150;586;131909;-66
2021/08/21 02:55:54;;;;;;;;;12.50;12.25;;;;;31.11;32.32;100946.34;144166;575;132014;-67
2021/08/21 02:58:28;;;;;;;;;17.00;12.50;;;;;31.07;32.65;100952.28;144147;609;132911;-67
2021/08/21 03:01:02;;;;;;;;;11.75;11.75;;;;;31.10;32.28;100952.78;144166;579;132014;-66
2021/08/21 03:03:36;;;;;;;;;12.50;12.50;;;;;31.00;32.16;100930.41;144157;600;132910;-66
2021/08/21 03:06:10;;;;;;;;;16.00;16.00;;;;;31.05;32.37;100955.16;144164;576;132014;-65
2021/08/21 03:08:44;;;;;;;;;10.25;10.25;;;;;31.09;32.41;100952.97;144149;588;132910;-69
2021/08/21 03:11:18;;;;;;;;;11.25;11.25;;;;;31.09;32.60;100951.09;144151;587;131021;-68
2021/08/21 03:13:52;;;;;;;;;12.50;12.50;;;;;31.12;32.57;100960.75;144143;563;132911;-67
2021/08/21 03:16:26;;;;;;;;;12.75;12.00;;;;;31.10;32.91;100966.34;144172;564;132010;-69
2021/08/21 03:19:00;;;;;;;;;12.00;12.00;;;;;31.01;32.99;100964.62;144152;634;132013;-71
2021/08/21 03:21:34;;;;;;;;;10.75;10.75;;;;;30.92;33.15;100968.34;144171;594;132012;-71
2021/08/21 03:24:10;;;;;;;;;13.50;13.50;;;;;30.80;33.43;100968.72;144146;609;132014;-72
2021/08/21 03:26:43;;;;;;;;;14.75;14.50;;;;;30.74;33.51;100966.66;144171;619;132014;-69
2021/08/21 03:29:17;;;;;;;;;12.75;12.50;;;;;30.75;33.65;100965.66;144157;575;132014;-69
2021/08/21 03:31:51;;;;;;;;;14.00;11.50;;;;;30.76;33.47;100970.06;144169;605;132014;-69
2021/08/21 03:34:25;;;;;;;;;13.50;12.00;;;;;30.76;33.49;100978.19;144146;620;132014;-68
2021/08/21 03:36:59;;;;;;;;;14.00;12.50;;;;;30.70;33.29;100978.84;144149;632;132014;-68
2021/08/21 03:39:33;;;;;;;;;12.00;10.25;;;;;30.64;33.67;100974.12;144149;611;132910;-71
2021/08/21 03:42:08;;;;;;;;;12.75;11.75;;;;;30.71;33.48;100967.00;144172;632;132012;-80
2021/08/21 03:44:42;;;;;;;;;14.00;12.75;;;;;30.80;33.15;100974.12;144151;564;132014;-71
2021/08/21 03:47:16;;;;;;;;;11.50;11.50;;;;;30.88;33.21;100976.84;144167;573;132014;-71
2021/08/21 03:49:50;;;;;;;;;13.50;11.50;;;;;30.87;33.09;100979.72;144145;570;132013;-70
2021/08/21 03:52:24;;;;;;;;;14.25;14.25;;;;;30.97;33.25;100988.50;144165;663;132022;-69
2021/08/21 03:54:58;;;;;;;;;13.75;13.75;;;;;31.09;33.07;100989.03;144163;569;132910;-69
2021/08/21 03:57:32;;;;;;;;;15.50;14.50;;;;;31.16;32.71;100987.34;144169;581;132014;-69
2021/08/21 04:00:08;;;;;;;;;14.50;13.50;;;;;31.08;33.05;100986.50;144149;602;132021;-70
2021/08/21 04:02:42;;;;;;;;;15.00;15.00;;;;;31.07;32.84;100987.50;144156;597;132010;-69
2021/08/21 04:05:16;;;;;;;;;12.50;12.50;;;;;31.09;33.30;100991.75;144145;566;132014;-68
2021/08/21 04:07:50;;;;;;;;;12.25;12.00;;;;;31.11;32.93;100984.31;144174;583;131020;-70
2021/08/21 04:10:25;;;;;;;;;11.00;10.25;;;;;31.14;33.03;100989.37;144151;598;132910;-71
2021/08/21 04:12:58;;;;;;;;;12.25;12.25;;;;;31.17;33.29;100983.59;144176;593;131021;-71
2021/08/21 04:15:32;;;;;;;;;12.25;11.50;;;;;31.25;32.98;100976.47;144153;572;132910;-71
2021/08/21 04:18:06;;;;;;;;;15.25;14.00;;;;;31.24;33.45;100980.22;144172;630;132011;-72
2021/08/21 04:20:40;;;;;;;;;10.75;10.75;;;;;31.28;33.38;100979.69;144161;620;132012;-69
2021/08/21 04:23:14;;;;;;;;;11.25;11.25;;;;;31.35;33.17;100990.69;144172;569;133020;-71
2021/08/21 04:25:48;;;;;;;;;14.75;14.75;;;;;31.43;33.71;100996.09;144149;580;132911;-70
2021/08/21 04:28:22;;;;;;;;;12.25;11.50;;;;;31.54;33.27;100984.88;144162;626;132012;-70
2021/08/21 04:30:56;;;;;;;;;12.50;12.50;;;;;31.65;33.14;100991.81;144148;707;132910;-67
2021/08/21 04:33:31;;;;;;;;;11.00;11.00;;;;;31.63;33.40;100990.31;144168;566;132015;-68
2021/08/21 04:36:05;;;;;;;;;18.75;15.00;;;;;31.69;33.59;100992.34;144146;571;132910;-68
2021/08/21 04:38:39;;;;;;;;;13.50;12.25;;;;;31.78;33.30;101001.28;144170;633;132012;-69
2021/08/21 04:41:13;;;;;;;;;15.75;14.25;;;;;31.81;33.85;100990.94;144155;630;132012;-69
2021/08/21 04:43:47;;;;;;;;;13.00;12.25;;;;;31.93;33.81;100991.34;144171;622;132010;-69
2021/08/21 04:46:21;;;;;;;;;13.00;12.00;;;;;32.01;33.65;100995.91;144162;601;132012;-70
2021/08/21 04:48:55;;;;;;;;;14.00;13.75;;;;;31.97;33.74;100991.88;144172;581;132014;-70
2021/08/21 04:51:29;;;;;;;;;15.75;12.75;;;;;32.04;33.70;100995.56;144148;624;132018;-70
2021/08/21 04:54:03;;;;;;;;;16.00;14.75;;;;;32.08;33.60;100996.06;144150;593;132010;-69
2021/08/21 04:56:44;;;;;;;;;11.00;11.00;;;;;32.17;33.46;100995.84;144155;564;132021;-69
2021/08/21 04:59:18;;;;;;;;;16.00;15.00;;;;;32.23;33.55;100992.44;144170;569;132012;-68
2021/08/21 05:01:52;;;;;;;;;13.00;13.00;;;;;32.15;33.65;101003.34;144142;569;132014;-69
2021/08/21 05:04:25;;;;;;;;;15.75;15.75;;;;;32.19;33.76;100996.53;144167;626;132010;-69
2021/08/21 05:06:59;;;;;;;;;17.25;15.75;;;;;32.26;34.11;101004.81;144147;571;132012;-70
2021/08/21 05:09:33;;;;;;;;;14.00;13.25;;;;;32.35;34.12;101008.31;144173;675;131020;-72
2021/08/21 05:12:08;;;;;;;;;14.25;14.25;;;;;32.48;33.74;101005.00;144162;588;131911;-69
2021/08/21 05:14:42;;;;;;;;;16.50;16.50;;;;;32.59;33.85;101010.03;144169;569;131020;-68
2021/08/21 05:17:16;;;;;;;;;14.50;14.50;;;;;32.69;34.00;101009.78;144149;749;132013;-68
2021/08/21 05:19:52;;;;;;;;;15.00;15.00;;;;;32.76;33.86;101010.78;144155;711;132022;-68
2021/08/21 05:22:39;;;;;;;;;15.25;15.25;;;;;32.84;33.65;101012.59;144143;583;132014;-68
2021/08/21 05:25:19;;;;;;;;;15.75;15.00;;;;;32.88;33.94;101012.03;144165;570;132014;-68
2021/08/21 05:27:57;;;;;;;;;16.75;15.50;;;;;32.93;34.04;101019.66;144153;601;132910;-68
2021/08/21 05:30:42;;;;;;;;;15.25;14.00;;;;;33.03;33.69;101016.69;144174;627;131028;-69
2021/08/21 05:33:21;;;;;;;;;14.00;13.50;;;;;33.01;33.38;101018.72;144155;581;132014;-68
2021/08/21 05:36:26;;;;;;;;;14.25;14.25;;;;;33.15;32.82;101026.09;144164;602;132014;-69
2021/08/21 05:39:00;;;;;;;;;15.00;15.00;;;;;33.27;32.63;101031.09;144161;746;132910;-68
2021/08/21 05:41:53;;;;;;;;;17.00;15.50;;;;;33.37;32.45;101037.97;144171;584;132012;-68
2021/08/21 05:44:27;;;;;;;;;14.00;12.75;;;;;33.44;32.60;101021.75;144151;563;132910;-68
2021/08/21 05:47:03;;;;;;;;;17.75;16.25;;;;;33.46;32.55;101030.56;144154;565;132010;-69
2021/08/21 05:49:41;;;;;;;;;15.50;15.50;;;;;33.19;32.60;101035.56;144149;587;132020;-69
2021/08/21 05:52:16;;;;;;;;;13.50;12.50;;;;;33.73;32.43;101039.12;144168;556;132020;-67
2021/08/21 05:54:49;;;;;;;;;13.50;13.50;;;;;33.88;32.03;101048.13;144152;569;132911;-68
2021/08/21 05:57:24;;;;;;;;;14.00;13.50;;;;;33.97;31.69;101035.28;144172;593;132014;-68
2021/08/21 05:59:58;;;;;;;;;15.75;15.00;;;;;34.03;31.32;101039.12;144147;618;132910;-72
2021/08/21 06:02:32;;;;;;;;;12.50;12.50;;;;;33.90;31.61;101040.63;144173;575;132010;-72
2021/08/21 06:05:06;;;;;;;;;12.75;12.75;;;;;33.77;31.45;101040.44;144169;612;132018;-72
2021/08/21 06:07:40;;;;;;;;;13.00;13.00;;;;;33.69;31.54;101049.50;144173;578;132010;-72
2021/08/21 06:17:42;;;;;;;;;12.00;9.75;;;;;33.71;31.42;101054.81;144151;632;132013;-74
2021/08/21 06:20:22;;;;;;;;;9.50;9.50;;;;;33.63;31.64;101043.97;144165;563;132012;-80
2021/08/21 06:22:56;;;;;;;;;11.25;10.00;;;;;33.52;31.73;101057.03;144157;697;132914;-81
2021/08/21 06:25:30;;;;;;;;;10.00;10.00;;;;;33.48;31.81;101058.44;144172;619;132013;-80
2021/08/21 06:28:04;;;;;;;;;13.50;13.25;;;;;33.38;32.20;101036.06;144150;635;132914;-80
2021/08/21 06:30:38;;;;;;;;;8.50;8.50;;;;;33.49;32.02;101059.28;144174;607;131021;-81
2021/08/21 06:33:12;;;;;;;;;14.25;13.00;;;;;33.49;32.02;101062.00;144162;579;132012;-81
2021/08/21 06:35:46;;;;;;;;;10.50;10.50;;;;;33.52;31.93;101056.19;144180;582;131020;-80
2021/08/21 06:38:20;;;;;;;;;10.25;10.00;;;;;33.48;32.06;101054.88;144151;580;132012;-74
2021/08/21 06:40:58;;;;;;;;;9.50;9.50;;;;;33.51;31.81;101055.34;144153;629;132012;-73
2021/08/21 06:43:32;;;;;;;;;10.75;9.75;;;;;33.31;32.19;101055.03;144159;597;132018;-74
2021/08/21 06:46:08;;;;;;;;;11.75;10.25;;;;;33.46;31.99;101051.47;144172;582;131021;-74
2021/08/21 06:48:42;;;;;;;;;10.75;10.75;;;;;33.52;32.04;101059.75;144150;582;132014;-75
2021/08/21 06:51:17;;;;;;;;;12.50;12.00;;;;;33.61;31.95;101056.94;144169;591;132010;-73
2021/08/21 06:53:50;;;;;;;;;13.75;12.00;;;;;33.61;32.01;101056.94;144154;637;132013;-73
2021/08/21 06:56:24;;;;;;;;;14.75;12.50;;;;;33.60;31.87;101063.41;144173;626;131020;-80
2021/08/21 06:59:00;;;;;;;;;10.25;10.00;;;;;33.62;31.79;101061.38;144163;623;132014;-78
2021/08/21 07:01:34;;;;;;;;;9.00;9.00;;;;;33.05;33.04;101063.56;144177;579;131021;-71
2021/08/21 07:04:08;;;;;;;;;10.25;9.00;;;;;33.57;32.33;101070.06;144157;688;132914;-83
2021/08/21 07:06:42;;;;;;;;;8.75;8.75;;;;;33.69;32.14;101057.69;144160;570;132012;-77
2021/08/21 07:09:16;;;;;;;;;11.00;10.25;;;;;33.68;32.47;101057.87;144152;776;132012;-77
2021/08/21 07:11:52;;;;;;;;;10.00;9.75;;;;;33.82;31.70;101058.94;144172;691;132012;-76
2021/08/21 07:14:26;;;;;;;;;8.25;7.75;;;;;33.84;31.88;101056.88;144157;755;132914;-76
2021/08/21 07:17:00;;;;;;;;;12.50;10.50;;;;;33.95;31.78;101069.19;144172;602;132013;-76
2021/08/21 07:19:34;;;;;;;;;11.25;9.00;;;;;34.09;31.69;101065.59;144155;578;132035;-76
2021/08/21 07:22:44;;;;;;;;;11.75;11.75;;;;;34.17;31.69;101068.19;144169;630;132010;-76
2021/08/21 07:25:18;;;;;;;;;10.00;10.00;;;;;34.25;31.63;101076.25;144167;687;132019;-76
2021/08/21 07:27:53;;;;;;;;;11.50;10.75;;;;;34.13;31.57;101072.34;144173;646;132010;-77
2021/08/21 07:30:27;;;;;;;;;12.00;12.00;;;;;33.60;32.82;101071.56;144152;564;132915;-77
2021/08/21 07:33:01;;;;;;;;;8.50;8.50;;;;;34.13;31.59;101075.06;144164;622;132008;-77
2021/08/21 07:35:35;;;;;;;;;11.00;10.00;;;;;34.19;31.49;101082.50;144148;599;132914;-76
2021/08/21 07:38:12;;;;;;;;;12.25;11.00;;;;;33.61;32.00;101082.28;144172;593;132010;-78
2021/08/21 07:40:47;;;;;;;;;8.50;8.50;;;;;33.07;32.75;101083.28;144154;566;131914;-77
2021/08/21 07:43:21;;;;;;;;;9.25;7.50;;;;;32.08;34.18;101081.06;144177;572;132012;-77
2021/08/21 07:45:55;;;;;;;;;13.25;11.25;;;;;31.88;35.10;101081.47;144150;590;132020;-76
2021/08/21 07:48:29;;;;;;;;;10.25;10.25;;;;;32.05;34.84;101084.13;144173;684;132010;-77
2021/08/21 07:51:03;;;;;;;;;10.00;10.00;;;;;32.93;33.11;101084.91;144159;605;132014;-77
2021/08/21 07:53:40;;;;;;;;;10.00;10.00;;;;;33.13;32.62;101077.09;144171;564;133010;-78
2021/08/21 07:56:14;;;;;;;;;9.00;9.00;;;;;32.58;33.31;101089.84;144149;605;132012;-79
2021/08/21 07:58:48;;;;;;;;;13.25;13.25;;;;;32.31;34.21;101083.03;144155;572;132010;-75
2021/08/21 08:01:25;;;;;;;;;9.75;9.00;;;;;32.02;34.40;101058.19;144150;570;132013;-75
2021/08/21 08:03:59;;;;;;;;;13.50;12.75;;;;;33.52;32.13;101073.34;144169;672;132012;-76
2021/08/21 08:06:33;;;;;;;;;9.75;9.00;;;;;33.42;32.23;101071.94;144157;645;132914;-77
2021/08/21 08:09:07;;;;;;;;;14.50;14.00;;;;;32.97;32.73;101072.66;144168;571;132011;-78
2021/08/21 08:11:41;;;;;;;;;14.00;11.50;;;;;33.83;31.38;101072.38;144150;708;132018;-76
2021/08/21 08:14:14;;;;;;;;;17.50;17.25;;;;;34.12;31.28;101072.53;144164;604;132020;-76
2021/08/21 08:16:48;;;;;;;;;9.50;9.50;;;;;33.94;31.08;101068.31;144164;575;132914;-78
2021/08/21 08:19:22;;;;;;;;;10.25;10.00;;;;;33.50;32.31;101055.53;144172;571;132012;-79
2021/08/21 08:21:56;;;;;;;;;11.25;11.25;;;;;34.52;30.12;101071.16;144147;624;132914;-77
2021/08/21 08:24:30;;;;;;;;;10.50;9.00;;;;;34.80;29.18;101067.66;144158;632;132010;-75
2021/08/21 08:27:04;;;;;;;;;12.75;12.75;;;;;33.52;31.31;101075.25;144148;638;132020;-80
2021/08/21 08:29:39;;;;;;;;;10.25;10.25;;;;;34.46;30.07;101065.62;144172;610;132010;-77
2021/08/21 08:32:13;;;;;;;;;10.00;10.00;;;;;34.71;30.20;101072.41;144146;578;132915;-81
2021/08/21 08:34:47;;;;;;;;;5.75;5.75;;;;;33.35;31.44;101059.09;144176;628;131020;-78
2021/08/21 08:37:21;;;;;;;;;11.75;11.75;;;;;33.00;31.90;101069.56;144151;664;132013;-79
2021/08/21 08:39:58;;;;;;;;;11.25;10.25;;;;;34.30;30.08;101069.47;144173;624;132010;-77
2021/08/21 08:42:32;;;;;;;;;12.50;12.50;;;;;33.88;30.46;101063.66;144160;620;132914;-78
2021/08/21 08:45:07;;;;;;;;;11.00;10.75;;;;;34.56;29.56;101067.03;144177;683;132010;-77
2021/08/21 08:47:41;;;;;;;;;10.50;10.50;;;;;34.98;29.04;101063.66;144153;570;132914;-77
2021/08/21 08:50:17;;;;;;;;;10.00;10.00;;;;;35.14;28.68;101063.41;144160;594;132021;-77
2021/08/21 08:52:53;;;;;;;;;8.25;8.00;;;;;35.88;27.37;101064.81;144152;596;132021;-79
2021/08/21 08:55:27;;;;;;;;;11.50;10.00;;;;;33.69;31.30;101067.75;144170;593;132012;-82
2021/08/21 08:58:04;;;;;;;;;8.75;8.25;;;;;33.27;32.37;101061.03;144182;568;131014;-76
2021/08/21 09:00:49;;;;;;;;;10.25;10.25;;;;;33.50;32.06;101061.81;144195;606;131010;-80
2021/08/21 09:03:30;;;;;;;;;9.00;9.00;;;;;33.36;32.26;101060.75;144176;630;132916;-77
2021/08/21 09:06:04;;;;;;;;;10.00;10.00;;;;;33.10;32.99;101058.41;144200;634;131010;-82
2021/08/21 09:08:38;;;;;;;;;10.75;10.75;;;;;32.75;33.20;101068.88;144184;707;132021;-78
2021/08/21 09:11:25;;;;;;;;;10.25;10.25;;;;;33.42;32.25;101067.31;144192;584;131010;-80
2021/08/21 09:14:20;;;;;;;;;9.00;9.00;;;;;34.03;31.59;101058.19;144188;605;131018;-81
2021/08/21 09:16:54;;;;;;;;;10.50;10.50;;;;;33.93;32.32;101065.78;144178;611;131012;-79
2021/08/21 09:19:29;;;;;;;;;9.25;9.25;;;;;33.36;32.84;101060.75;144183;599;131012;-79
2021/08/21 09:22:10;;;;;;;;;10.50;10.50;;;;;34.42;31.15;101070.66;144198;710;131012;-80
2021/08/21 09:24:46;;;;;;;;;7.25;7.25;;;;;33.92;32.52;101056.78;144181;571;131020;-77
2021/08/21 09:27:27;;;;;;;;;11.00;9.75;;;;;33.63;33.05;101058.44;144202;572;130020;-78
2021/08/21 09:30:15;;;;;;;;;11.50;11.50;;;;;33.64;33.20;101062.00;144181;597;130919;-82
2021/08/21 09:32:50;;;;;;;;;7.75;7.75;;;;;32.49;34.98;101067.34;144197;627;131012;-79
2021/08/21 09:35:25;;;;;;;;;12.00;12.00;;;;;33.45;33.37;101061.53;144188;609;131918;-80
2021/08/21 09:37:59;;;;;;;;;10.75;10.75;;;;;33.25;33.75;101063.09;144204;669;130020;-80
2021/08/21 09:40:39;;;;;;;;;8.00;8.00;;;;;31.77;36.59;101073.72;144183;578;130918;-79
2021/08/21 09:43:26;;;;;;;;;10.75;10.75;;;;;31.73;35.82;101075.09;144188;586;131011;-79
2021/08/21 09:46:24;;;;;;;;;8.75;8.25;;;;;33.32;33.25;101058.59;144185;624;131918;-86
2021/08/21 09:49:25;;;;;;;;;11.25;11.25;;;;;32.87;34.88;101053.84;144193;583;131010;-82
2021/08/21 09:51:59;;;;;;;;;8.00;8.00;;;;;33.54;33.51;101060.41;144186;595;131920;-80
2021/08/21 09:54:34;;;;;;;;;10.00;9.00;;;;;33.95;32.56;101053.69;144201;569;130020;-81
2021/08/21 09:57:11;;;;;;;;;9.50;9.50;;;;;33.40;33.94;101050.34;144173;564;131016;-82
2021/08/21 09:59:51;;;;;;;;;9.00;9.00;;;;;32.56;35.94;101051.13;144181;602;132011;-84
2021/08/21 10:02:25;;;;;;;;;10.25;10.00;;;;;32.69;35.62;101042.41;144162;648;132018;-81
2021/08/21 10:05:00;;;;;;;;;11.25;11.25;;;;;31.89;36.53;101047.03;144173;579;132010;-79
2021/08/21 10:07:45;;;;;;;;;11.50;10.75;;;;;32.67;34.93;101050.75;144155;602;131916;-80
2021/08/21 10:10:23;;;;;;;;;10.75;10.75;;;;;33.05;34.93;101042.66;144154;640;132025;-77
2021/08/21 10:13:06;;;;;;;;;9.50;9.50;;;;;32.68;35.36;101044.28;144149;614;132018;-85
2021/08/21 10:15:45;;;;;;;;;10.25;10.25;;;;;32.51;36.38;101040.81;144178;709;132012;-79
2021/08/21 10:18:23;;;;;;;;;9.00;7.25;;;;;32.04;36.70;101044.44;144156;605;132014;-85
2021/08/21 10:20:57;;;;;;;;;9.75;8.75;;;;;32.11;36.64;101034.56;144172;621;132010;-80
2021/08/21 10:23:32;;;;;;;;;8.75;8.75;;;;;31.84;36.55;101044.84;144155;664;133917;-81
2021/08/21 10:26:20;;;;;;;;;8.25;8.25;;;;;32.08;36.31;101037.63;144172;616;132012;-82
2021/08/21 10:28:54;;;;;;;;;7.50;7.50;;;;;32.10;35.78;101032.88;144172;626;132012;-79
2021/08/21 10:31:57;;;;;;;;;9.00;9.00;;;;;32.94;34.80;101002.28;144176;608;132010;-77
2021/08/21 10:34:52;;;;;;;;;10.75;10.75;;;;;31.89;36.26;101025.31;144147;567;132015;-78
2021/08/21 10:37:46;;;;;;;;;10.00;10.00;;;;;32.20;35.39;101022.66;144157;708;132012;-81
2021/08/21 10:40:51;;;;;;;;;10.00;9.50;;;;;32.59;35.62;101025.47;144161;595;132014;-79
2021/08/21 10:43:48;;;;;;;;;10.75;10.75;;;;;33.97;33.36;101020.81;144177;599;132011;-76
2021/08/21 10:46:54;;;;;;;;;10.00;10.00;;;;;33.84;34.13;101025.03;144155;611;132018;-79
2021/08/21 10:49:48;;;;;;;;;11.25;11.00;;;;;32.85;35.48;101006.97;144174;630;132009;-86
2021/08/21 10:52:52;;;;;;;;;11.50;11.50;;;;;33.14;34.59;101013.50;144147;573;132917;-81
2021/08/21 10:55:47;;;;;;;;;6.50;6.50;;;;;34.95;32.29;101004.06;144174;566;132012;-78
2021/08/21 10:58:24;;;;;;;;;10.00;10.00;;;;;33.08;34.93;101008.81;144199;629;131916;-79
2021/08/21 11:01:09;;;;;;;;;10.00;10.00;;;;;32.40;36.23;101016.78;144198;563;130022;-83
2021/08/21 11:03:47;;;;;;;;;11.75;11.50;;;;;33.18;35.75;101012.09;144180;684;132916;-80
2021/08/21 11:06:37;;;;;;;;;9.50;9.50;;;;;33.00;36.25;101017.88;144184;564;130021;-82
2021/08/21 11:09:15;;;;;;;;;7.50;7.50;;;;;33.27;36.13;101021.06;144187;601;133914;-78
2021/08/21 11:11:53;;;;;;;;;8.00;8.00;;;;;32.65;36.58;101017.44;144204;606;131010;-79
2021/08/21 11:14:35;;;;;;;;;7.00;7.00;;;;;32.81;36.33;100992.06;144185;603;131915;-83
2021/08/21 11:17:11;;;;;;;;;9.50;9.50;;;;;33.46;35.30;100997.91;144207;649;130020;-80
2021/08/21 11:19:50;;;;;;;;;8.75;8.75;;;;;33.22;35.61;100991.66;144184;655;130018;-80
2021/08/21 11:22:30;;;;;;;;;9.50;8.00;;;;;32.72;37.17;100998.56;144195;595;131012;-78
2021/08/21 11:25:08;;;;;;;;;8.50;8.00;;;;;33.18;36.01;100990.34;144196;589;131915;-80
2021/08/21 11:27:43;;;;;;;;;10.00;10.00;;;;;32.92;35.93;100987.19;144206;598;130021;-82
2021/08/21 11:30:21;;;;;;;;;7.25;7.00;;;;;32.70;36.93;100984.34;144183;624;131014;-82
2021/08/21 11:33:01;;;;;;;;;9.50;9.50;;;;;32.92;37.01;100989.91;144187;594;131012;-77
2021/08/21 11:35:53;;;;;;;;;6.50;6.50;;;;;33.74;35.81;100976.31;144187;583;131021;-81
2021/08/21 11:38:35;;;;;;;;;12.75;11.75;;;;;32.73;37.38;100983.97;144195;647;131010;-82
2021/08/21 11:41:20;;;;;;;;;9.50;9.50;;;;;34.26;34.56;100970.88;144183;569;131012;-78
2021/08/21 11:43:54;;;;;;;;;8.25;8.25;;;;;34.35;34.58;100977.06;144204;637;131010;-80
2021/08/21 11:46:29;;;;;;;;;6.75;6.75;;;;;33.55;36.01;100983.16;144186;581;131014;-80
2021/08/21 11:49:12;;;;;;;;;10.25;10.25;;;;;33.60;36.13;100973.59;144203;739;130020;-80
2021/08/21 11:51:47;;;;;;;;;7.25;7.25;;;;;34.06;35.79;100967.91;144195;571;130914;-79
2021/08/21 11:54:21;;;;;;;;;8.50;8.00;;;;;34.02;35.99;100962.03;144202;563;131008;-83
2021/08/21 11:57:05;;;;;;;;;11.00;11.00;;;;;33.66;37.05;100967.41;144163;570;132013;-81